sensor_id;sensor_type;location;lat;lon;timestamp;P1;durP1;ratioP1;P2;durP2;ratioP2
5052;SDS011;2545;50.892;5.740;2023-11-18T00:00:33;44.37;;;23.60;;
5052;SDS011;2545;50.892;5.740;2023-11-18T00:02:59;38.97;;;22.20;;
5052;SDS011;2545;50.892;5.740;2023-11-18T00:05:24;41.30;;;21.10;;
5052;SDS011;2545;50.892;5.740;2023-11-18T00:07:50;38.80;;;21.57;;
5052;SDS011;2545;50.892;5.740;2023-11-18T00:10:15;39.13;;;21.20;;
5052;SDS011;2545;50.892;5.740;2023-11-18T00:12:42;35.70;;;21.17;;
5052;SDS011;2545;50.892;5.740;2023-11-18T00:15:08;46.43;;;22.40;;
5052;SDS011;2545;50.892;5.740;2023-11-18T00:17:35;52.23;;;22.40;;
5052;SDS011;2545;50.892;5.740;2023-11-18T00:20:01;39.50;;;20.90;;
5052;SDS011;2545;50.892;5.740;2023-11-18T00:22:33;35.80;;;19.47;;
5052;SDS011;2545;50.892;5.740;2023-11-18T00:24:59;36.63;;;20.63;;
5052;SDS011;2545;50.892;5.740;2023-11-18T00:27:24;46.60;;;21.67;;
5052;SDS011;2545;50.892;5.740;2023-11-18T00:29:50;41.03;;;22.47;;
5052;SDS011;2545;50.892;5.740;2023-11-18T00:32:15;33.77;;;20.30;;
5052;SDS011;2545;50.892;5.740;2023-11-18T00:34:41;44.77;;;21.60;;
5052;SDS011;2545;50.892;5.740;2023-11-18T00:37:06;41.33;;;19.90;;
5052;SDS011;2545;50.892;5.740;2023-11-18T00:39:32;35.07;;;19.57;;
5052;SDS011;2545;50.892;5.740;2023-11-18T00:41:57;35.20;;;21.03;;
5052;SDS011;2545;50.892;5.740;2023-11-18T00:44:23;43.97;;;21.60;;
5052;SDS011;2545;50.892;5.740;2023-11-18T00:46:48;37.93;;;20.33;;
5052;SDS011;2545;50.892;5.740;2023-11-18T00:49:13;35.33;;;20.60;;
5052;SDS011;2545;50.892;5.740;2023-11-18T00:51:39;31.60;;;19.47;;
5052;SDS011;2545;50.892;5.740;2023-11-18T00:54:06;36.10;;;19.20;;
5052;SDS011;2545;50.892;5.740;2023-11-18T00:56:31;35.53;;;19.83;;
5052;SDS011;2545;50.892;5.740;2023-11-18T00:58:57;36.57;;;20.20;;
5052;SDS011;2545;50.892;5.740;2023-11-18T01:01:23;42.90;;;20.60;;
5052;SDS011;2545;50.892;5.740;2023-11-18T01:03:48;35.70;;;20.30;;
5052;SDS011;2545;50.892;5.740;2023-11-18T01:06:13;33.07;;;18.73;;
5052;SDS011;2545;50.892;5.740;2023-11-18T01:08:40;48.87;;;20.57;;
5052;SDS011;2545;50.892;5.740;2023-11-18T01:11:09;44.70;;;19.33;;
5052;SDS011;2545;50.892;5.740;2023-11-18T01:13:34;36.53;;;18.57;;
5052;SDS011;2545;50.892;5.740;2023-11-18T01:16:00;50.63;;;20.00;;
5052;SDS011;2545;50.892;5.740;2023-11-18T01:18:25;40.27;;;18.00;;
5052;SDS011;2545;50.892;5.740;2023-11-18T01:20:50;33.53;;;17.77;;
5052;SDS011;2545;50.892;5.740;2023-11-18T01:23:16;37.43;;;19.00;;
5052;SDS011;2545;50.892;5.740;2023-11-18T01:25:41;31.50;;;17.60;;
5052;SDS011;2545;50.892;5.740;2023-11-18T01:28:07;36.07;;;18.70;;
5052;SDS011;2545;50.892;5.740;2023-11-18T01:30:32;32.43;;;17.80;;
5052;SDS011;2545;50.892;5.740;2023-11-18T01:32:57;31.60;;;16.60;;
5052;SDS011;2545;50.892;5.740;2023-11-18T01:35:28;34.37;;;18.50;;
5052;SDS011;2545;50.892;5.740;2023-11-18T01:37:54;33.33;;;17.30;;
5052;SDS011;2545;50.892;5.740;2023-11-18T01:40:19;32.03;;;16.50;;
5052;SDS011;2545;50.892;5.740;2023-11-18T01:42:45;27.20;;;16.27;;
5052;SDS011;2545;50.892;5.740;2023-11-18T01:45:11;26.90;;;15.70;;
5052;SDS011;2545;50.892;5.740;2023-11-18T01:47:38;25.87;;;15.90;;
5052;SDS011;2545;50.892;5.740;2023-11-18T01:50:05;26.73;;;14.50;;
5052;SDS011;2545;50.892;5.740;2023-11-18T01:52:33;27.83;;;16.57;;
5052;SDS011;2545;50.892;5.740;2023-11-18T01:54:59;22.50;;;14.40;;
5052;SDS011;2545;50.892;5.740;2023-11-18T01:57:24;24.03;;;15.17;;
5052;SDS011;2545;50.892;5.740;2023-11-18T01:59:52;26.23;;;14.87;;
5052;SDS011;2545;50.892;5.740;2023-11-18T02:02:20;22.03;;;14.33;;
5052;SDS011;2545;50.892;5.740;2023-11-18T02:04:48;23.97;;;14.10;;
5052;SDS011;2545;50.892;5.740;2023-11-18T02:07:14;23.20;;;13.10;;
5052;SDS011;2545;50.892;5.740;2023-11-18T02:09:40;21.03;;;12.87;;
5052;SDS011;2545;50.892;5.740;2023-11-18T02:14:46;25.50;;;13.50;;
5052;SDS011;2545;50.892;5.740;2023-11-18T02:17:17;23.00;;;13.03;;
5052;SDS011;2545;50.892;5.740;2023-11-18T02:19:45;25.33;;;12.73;;
5052;SDS011;2545;50.892;5.740;2023-11-18T02:22:11;23.30;;;11.87;;
5052;SDS011;2545;50.892;5.740;2023-11-18T02:24:37;23.17;;;12.20;;
5052;SDS011;2545;50.892;5.740;2023-11-18T02:27:03;20.50;;;11.90;;
5052;SDS011;2545;50.892;5.740;2023-11-18T02:29:33;28.73;;;12.80;;
5052;SDS011;2545;50.892;5.740;2023-11-18T02:32:47;22.67;;;11.63;;
5052;SDS011;2545;50.892;5.740;2023-11-18T02:34:56;18.77;;;11.40;;
5052;SDS011;2545;50.892;5.740;2023-11-18T02:37:28;24.70;;;10.33;;
5052;SDS011;2545;50.892;5.740;2023-11-18T02:40:04;16.30;;;10.47;;
5052;SDS011;2545;50.892;5.740;2023-11-18T02:42:34;19.87;;;10.80;;
5052;SDS011;2545;50.892;5.740;2023-11-18T02:45:02;29.87;;;11.67;;
5052;SDS011;2545;50.892;5.740;2023-11-18T02:47:31;14.97;;;10.50;;
5052;SDS011;2545;50.892;5.740;2023-11-18T02:49:57;17.43;;;11.57;;
5052;SDS011;2545;50.892;5.740;2023-11-18T02:52:30;19.47;;;10.40;;
5052;SDS011;2545;50.892;5.740;2023-11-18T02:54:55;20.70;;;9.80;;
5052;SDS011;2545;50.892;5.740;2023-11-18T02:57:21;17.63;;;9.50;;
5052;SDS011;2545;50.892;5.740;2023-11-18T02:59:46;17.87;;;9.43;;
5052;SDS011;2545;50.892;5.740;2023-11-18T03:02:12;16.07;;;9.30;;
5052;SDS011;2545;50.892;5.740;2023-11-18T03:04:37;23.07;;;9.70;;
5052;SDS011;2545;50.892;5.740;2023-11-18T03:07:03;16.83;;;8.80;;
5052;SDS011;2545;50.892;5.740;2023-11-18T03:09:28;24.40;;;10.10;;
5052;SDS011;2545;50.892;5.740;2023-11-18T03:11:53;14.77;;;8.40;;
5052;SDS011;2545;50.892;5.740;2023-11-18T03:14:20;20.70;;;8.83;;
5052;SDS011;2545;50.892;5.740;2023-11-18T03:16:45;14.47;;;8.50;;
5052;SDS011;2545;50.892;5.740;2023-11-18T03:19:10;19.93;;;8.07;;
5052;SDS011;2545;50.892;5.740;2023-11-18T03:21:36;16.67;;;8.70;;
5052;SDS011;2545;50.892;5.740;2023-11-18T03:24:01;15.43;;;8.30;;
5052;SDS011;2545;50.892;5.740;2023-11-18T03:26:27;16.70;;;8.47;;
5052;SDS011;2545;50.892;5.740;2023-11-18T03:28:52;15.00;;;8.43;;
5052;SDS011;2545;50.892;5.740;2023-11-18T03:31:18;13.60;;;8.53;;
5052;SDS011;2545;50.892;5.740;2023-11-18T03:33:44;16.20;;;7.90;;
5052;SDS011;2545;50.892;5.740;2023-11-18T03:36:10;17.73;;;7.53;;
5052;SDS011;2545;50.892;5.740;2023-11-18T03:38:37;16.73;;;9.20;;
5052;SDS011;2545;50.892;5.740;2023-11-18T03:41:02;15.60;;;8.03;;
5052;SDS011;2545;50.892;5.740;2023-11-18T03:43:28;29.27;;;8.70;;
5052;SDS011;2545;50.892;5.740;2023-11-18T03:45:54;14.07;;;9.07;;
5052;SDS011;2545;50.892;5.740;2023-11-18T03:48:21;15.37;;;7.50;;
5052;SDS011;2545;50.892;5.740;2023-11-18T03:50:47;15.13;;;8.20;;
5052;SDS011;2545;50.892;5.740;2023-11-18T03:53:12;17.37;;;6.67;;
5052;SDS011;2545;50.892;5.740;2023-11-18T03:55:38;16.67;;;7.23;;
5052;SDS011;2545;50.892;5.740;2023-11-18T03:58:03;22.90;;;7.17;;
5052;SDS011;2545;50.892;5.740;2023-11-18T04:00:28;13.00;;;7.20;;
5052;SDS011;2545;50.892;5.740;2023-11-18T04:02:58;11.87;;;7.47;;
5052;SDS011;2545;50.892;5.740;2023-11-18T04:05:25;16.40;;;6.33;;
5052;SDS011;2545;50.892;5.740;2023-11-18T04:07:51;14.20;;;7.10;;
5052;SDS011;2545;50.892;5.740;2023-11-18T04:10:17;14.30;;;7.10;;
5052;SDS011;2545;50.892;5.740;2023-11-18T04:12:43;12.37;;;7.00;;
5052;SDS011;2545;50.892;5.740;2023-11-18T04:15:11;15.57;;;7.43;;
5052;SDS011;2545;50.892;5.740;2023-11-18T04:17:37;18.17;;;6.73;;
5052;SDS011;2545;50.892;5.740;2023-11-18T04:20:03;18.00;;;7.67;;
5052;SDS011;2545;50.892;5.740;2023-11-18T04:22:33;9.90;;;6.33;;
5052;SDS011;2545;50.892;5.740;2023-11-18T04:24:59;13.67;;;5.73;;
5052;SDS011;2545;50.892;5.740;2023-11-18T04:27:24;15.47;;;5.70;;
5052;SDS011;2545;50.892;5.740;2023-11-18T04:29:49;10.37;;;6.47;;
5052;SDS011;2545;50.892;5.740;2023-11-18T04:32:14;16.13;;;6.20;;
5052;SDS011;2545;50.892;5.740;2023-11-18T04:34:41;11.30;;;5.80;;
5052;SDS011;2545;50.892;5.740;2023-11-18T04:37:07;10.90;;;5.80;;
5052;SDS011;2545;50.892;5.740;2023-11-18T04:39:33;12.07;;;7.23;;
5052;SDS011;2545;50.892;5.740;2023-11-18T04:41:58;10.80;;;5.73;;
5052;SDS011;2545;50.892;5.740;2023-11-18T04:44:24;11.57;;;5.03;;
5052;SDS011;2545;50.892;5.740;2023-11-18T04:46:49;8.17;;;4.80;;
5052;SDS011;2545;50.892;5.740;2023-11-18T04:49:15;9.03;;;5.00;;
5052;SDS011;2545;50.892;5.740;2023-11-18T04:51:40;13.63;;;5.00;;
5052;SDS011;2545;50.892;5.740;2023-11-18T04:54:06;5.90;;;4.90;;
5052;SDS011;2545;50.892;5.740;2023-11-18T04:56:33;14.30;;;5.10;;
5052;SDS011;2545;50.892;5.740;2023-11-18T04:59:00;11.80;;;5.07;;
5052;SDS011;2545;50.892;5.740;2023-11-18T05:01:25;13.37;;;5.13;;
5052;SDS011;2545;50.892;5.740;2023-11-18T05:03:51;7.10;;;4.23;;
5052;SDS011;2545;50.892;5.740;2023-11-18T05:06:16;12.60;;;5.07;;
5052;SDS011;2545;50.892;5.740;2023-11-18T05:08:41;9.33;;;5.27;;
5052;SDS011;2545;50.892;5.740;2023-11-18T05:11:07;7.10;;;4.43;;
5052;SDS011;2545;50.892;5.740;2023-11-18T05:13:32;8.20;;;4.80;;
5052;SDS011;2545;50.892;5.740;2023-11-18T05:15:58;13.73;;;4.77;;
5052;SDS011;2545;50.892;5.740;2023-11-18T05:18:24;8.20;;;4.53;;
5052;SDS011;2545;50.892;5.740;2023-11-18T05:20:54;15.27;;;4.00;;
5052;SDS011;2545;50.892;5.740;2023-11-18T05:23:19;11.00;;;4.07;;
5052;SDS011;2545;50.892;5.740;2023-11-18T05:25:45;7.87;;;4.67;;
5052;SDS011;2545;50.892;5.740;2023-11-18T05:28:10;11.97;;;4.10;;
5052;SDS011;2545;50.892;5.740;2023-11-18T05:30:36;8.00;;;4.20;;
5052;SDS011;2545;50.892;5.740;2023-11-18T05:33:05;6.83;;;4.00;;
5052;SDS011;2545;50.892;5.740;2023-11-18T05:35:31;8.83;;;3.60;;
5052;SDS011;2545;50.892;5.740;2023-11-18T05:37:57;13.13;;;3.87;;
5052;SDS011;2545;50.892;5.740;2023-11-18T05:40:23;7.10;;;4.07;;
5052;SDS011;2545;50.892;5.740;2023-11-18T05:42:50;8.07;;;3.90;;
5052;SDS011;2545;50.892;5.740;2023-11-18T05:45:17;11.10;;;3.60;;
5052;SDS011;2545;50.892;5.740;2023-11-18T05:47:55;8.60;;;3.87;;
5052;SDS011;2545;50.892;5.740;2023-11-18T05:50:22;5.77;;;3.60;;
5052;SDS011;2545;50.892;5.740;2023-11-18T05:52:49;8.00;;;3.50;;
5052;SDS011;2545;50.892;5.740;2023-11-18T05:55:15;10.10;;;3.47;;
5052;SDS011;2545;50.892;5.740;2023-11-18T05:57:41;8.60;;;2.97;;
5052;SDS011;2545;50.892;5.740;2023-11-18T06:00:10;13.70;;;5.03;;
5052;SDS011;2545;50.892;5.740;2023-11-18T06:02:40;4.50;;;3.13;;
5052;SDS011;2545;50.892;5.740;2023-11-18T06:05:08;10.40;;;3.47;;
5052;SDS011;2545;50.892;5.740;2023-11-18T06:07:34;3.37;;;2.80;;
5052;SDS011;2545;50.892;5.740;2023-11-18T06:10:00;4.40;;;3.00;;
5052;SDS011;2545;50.892;5.740;2023-11-18T06:12:30;17.50;;;4.00;;
5052;SDS011;2545;50.892;5.740;2023-11-18T06:14:56;6.60;;;3.47;;
5052;SDS011;2545;50.892;5.740;2023-11-18T06:17:22;5.10;;;3.27;;
5052;SDS011;2545;50.892;5.740;2023-11-18T06:19:48;22.53;;;3.70;;
5052;SDS011;2545;50.892;5.740;2023-11-18T06:22:14;9.20;;;3.20;;
5052;SDS011;2545;50.892;5.740;2023-11-18T06:24:40;10.60;;;3.30;;
5052;SDS011;2545;50.892;5.740;2023-11-18T06:27:06;11.77;;;3.50;;
5052;SDS011;2545;50.892;5.740;2023-11-18T06:29:33;13.63;;;3.43;;
5052;SDS011;2545;50.892;5.740;2023-11-18T06:31:59;10.87;;;3.20;;
5052;SDS011;2545;50.892;5.740;2023-11-18T06:34:24;6.03;;;3.33;;
5052;SDS011;2545;50.892;5.740;2023-11-18T06:36:52;7.70;;;3.83;;
5052;SDS011;2545;50.892;5.740;2023-11-18T06:39:17;12.70;;;3.97;;
5052;SDS011;2545;50.892;5.740;2023-11-18T06:41:44;11.53;;;3.10;;
5052;SDS011;2545;50.892;5.740;2023-11-18T06:44:15;7.70;;;3.03;;
5052;SDS011;2545;50.892;5.740;2023-11-18T06:46:47;13.30;;;3.10;;
5052;SDS011;2545;50.892;5.740;2023-11-18T06:49:15;10.13;;;2.70;;
5052;SDS011;2545;50.892;5.740;2023-11-18T06:51:41;6.27;;;2.50;;
5052;SDS011;2545;50.892;5.740;2023-11-18T06:54:06;12.10;;;3.77;;
5052;SDS011;2545;50.892;5.740;2023-11-18T06:56:41;5.97;;;3.43;;
5052;SDS011;2545;50.892;5.740;2023-11-18T06:59:07;11.13;;;3.63;;
5052;SDS011;2545;50.892;5.740;2023-11-18T07:01:35;15.70;;;3.70;;
5052;SDS011;2545;50.892;5.740;2023-11-18T07:04:01;8.10;;;2.23;;
5052;SDS011;2545;50.892;5.740;2023-11-18T07:06:26;5.80;;;3.00;;
5052;SDS011;2545;50.892;5.740;2023-11-18T07:08:52;6.10;;;2.60;;
5052;SDS011;2545;50.892;5.740;2023-11-18T07:11:18;11.80;;;3.40;;
5052;SDS011;2545;50.892;5.740;2023-11-18T07:13:45;6.00;;;2.23;;
5052;SDS011;2545;50.892;5.740;2023-11-18T07:16:12;6.97;;;2.90;;
5052;SDS011;2545;50.892;5.740;2023-11-18T07:18:39;5.07;;;2.77;;
5052;SDS011;2545;50.892;5.740;2023-11-18T07:21:05;4.33;;;2.57;;
5052;SDS011;2545;50.892;5.740;2023-11-18T07:23:34;5.20;;;3.10;;
5052;SDS011;2545;50.892;5.740;2023-11-18T07:26:00;3.77;;;1.87;;
5052;SDS011;2545;50.892;5.740;2023-11-18T07:28:25;5.83;;;3.00;;
5052;SDS011;2545;50.892;5.740;2023-11-18T07:30:51;7.47;;;3.03;;
5052;SDS011;2545;50.892;5.740;2023-11-18T07:33:18;4.73;;;2.30;;
5052;SDS011;2545;50.892;5.740;2023-11-18T07:35:44;7.10;;;2.90;;
5052;SDS011;2545;50.892;5.740;2023-11-18T07:38:11;12.23;;;2.80;;
5052;SDS011;2545;50.892;5.740;2023-11-18T07:40:37;5.13;;;2.60;;
5052;SDS011;2545;50.892;5.740;2023-11-18T07:43:07;10.43;;;3.23;;
5052;SDS011;2545;50.892;5.740;2023-11-18T07:45:35;4.67;;;2.33;;
5052;SDS011;2545;50.892;5.740;2023-11-18T07:48:07;6.93;;;2.80;;
5052;SDS011;2545;50.892;5.740;2023-11-18T07:50:36;12.63;;;2.70;;
5052;SDS011;2545;50.892;5.740;2023-11-18T07:53:05;6.30;;;2.40;;
5052;SDS011;2545;50.892;5.740;2023-11-18T07:55:31;7.10;;;2.60;;
5052;SDS011;2545;50.892;5.740;2023-11-18T07:57:59;7.20;;;2.43;;
5052;SDS011;2545;50.892;5.740;2023-11-18T08:00:26;7.40;;;2.90;;
5052;SDS011;2545;50.892;5.740;2023-11-18T08:02:55;6.03;;;2.27;;
5052;SDS011;2545;50.892;5.740;2023-11-18T08:05:21;9.17;;;2.60;;
5052;SDS011;2545;50.892;5.740;2023-11-18T08:07:48;7.30;;;2.40;;
5052;SDS011;2545;50.892;5.740;2023-11-18T08:10:14;12.13;;;3.40;;
5052;SDS011;2545;50.892;5.740;2023-11-18T08:12:43;10.20;;;2.33;;
5052;SDS011;2545;50.892;5.740;2023-11-18T08:15:09;7.93;;;3.13;;
5052;SDS011;2545;50.892;5.740;2023-11-18T08:17:35;3.53;;;2.13;;
5052;SDS011;2545;50.892;5.740;2023-11-18T08:20:01;14.20;;;2.80;;
5052;SDS011;2545;50.892;5.740;2023-11-18T08:22:31;8.00;;;3.27;;
5052;SDS011;2545;50.892;5.740;2023-11-18T08:24:57;17.33;;;3.43;;
5052;SDS011;2545;50.892;5.740;2023-11-18T08:27:23;8.17;;;3.13;;
5052;SDS011;2545;50.892;5.740;2023-11-18T08:29:49;4.43;;;2.70;;
5052;SDS011;2545;50.892;5.740;2023-11-18T08:32:14;5.50;;;3.17;;
5052;SDS011;2545;50.892;5.740;2023-11-18T08:34:40;5.80;;;2.90;;
5052;SDS011;2545;50.892;5.740;2023-11-18T08:37:05;12.17;;;3.23;;
5052;SDS011;2545;50.892;5.740;2023-11-18T08:39:31;14.93;;;3.40;;
5052;SDS011;2545;50.892;5.740;2023-11-18T08:41:57;7.07;;;3.10;;
5052;SDS011;2545;50.892;5.740;2023-11-18T08:44:22;12.70;;;3.23;;
5052;SDS011;2545;50.892;5.740;2023-11-18T08:46:52;12.20;;;3.33;;
5052;SDS011;2545;50.892;5.740;2023-11-18T08:49:18;6.83;;;3.20;;
5052;SDS011;2545;50.892;5.740;2023-11-18T08:51:50;11.00;;;3.87;;
5052;SDS011;2545;50.892;5.740;2023-11-18T08:54:21;8.67;;;3.23;;
5052;SDS011;2545;50.892;5.740;2023-11-18T08:57:06;4.27;;;2.80;;
5052;SDS011;2545;50.892;5.740;2023-11-18T08:59:48;6.60;;;4.00;;
5052;SDS011;2545;50.892;5.740;2023-11-18T09:02:14;8.90;;;3.63;;
5052;SDS011;2545;50.892;5.740;2023-11-18T09:04:42;10.60;;;3.80;;
5052;SDS011;2545;50.892;5.740;2023-11-18T09:07:08;13.10;;;5.13;;
5052;SDS011;2545;50.892;5.740;2023-11-18T09:09:35;13.27;;;3.60;;
5052;SDS011;2545;50.892;5.740;2023-11-18T09:12:00;7.43;;;3.77;;
5052;SDS011;2545;50.892;5.740;2023-11-18T09:14:27;10.00;;;3.70;;
5052;SDS011;2545;50.892;5.740;2023-11-18T09:16:53;5.10;;;3.60;;
5052;SDS011;2545;50.892;5.740;2023-11-18T09:19:24;9.80;;;3.70;;
5052;SDS011;2545;50.892;5.740;2023-11-18T09:21:50;6.93;;;3.53;;
5052;SDS011;2545;50.892;5.740;2023-11-18T09:24:16;9.00;;;3.60;;
5052;SDS011;2545;50.892;5.740;2023-11-18T09:26:44;12.90;;;4.00;;
5052;SDS011;2545;50.892;5.740;2023-11-18T09:29:16;11.53;;;4.03;;
5052;SDS011;2545;50.892;5.740;2023-11-18T09:31:43;14.77;;;3.57;;
5052;SDS011;2545;50.892;5.740;2023-11-18T09:34:13;5.53;;;2.97;;
5052;SDS011;2545;50.892;5.740;2023-11-18T09:36:42;14.50;;;4.50;;
5052;SDS011;2545;50.892;5.740;2023-11-18T09:39:10;9.30;;;3.90;;
5052;SDS011;2545;50.892;5.740;2023-11-18T09:41:54;10.50;;;3.70;;
5052;SDS011;2545;50.892;5.740;2023-11-18T09:44:21;10.87;;;3.60;;
5052;SDS011;2545;50.892;5.740;2023-11-18T09:46:48;15.43;;;4.20;;
5052;SDS011;2545;50.892;5.740;2023-11-18T09:49:26;19.13;;;4.97;;
5052;SDS011;2545;50.892;5.740;2023-11-18T09:51:58;10.40;;;3.63;;
5052;SDS011;2545;50.892;5.740;2023-11-18T09:57:37;8.57;;;4.30;;
5052;SDS011;2545;50.892;5.740;2023-11-18T10:00:06;11.20;;;3.57;;
5052;SDS011;2545;50.892;5.740;2023-11-18T10:02:44;7.03;;;3.60;;
5052;SDS011;2545;50.892;5.740;2023-11-18T10:05:13;9.47;;;3.33;;
5052;SDS011;2545;50.892;5.740;2023-11-18T10:07:39;11.50;;;3.77;;
5052;SDS011;2545;50.892;5.740;2023-11-18T10:10:06;9.50;;;3.30;;
5052;SDS011;2545;50.892;5.740;2023-11-18T10:12:40;12.37;;;3.80;;
5052;SDS011;2545;50.892;5.740;2023-11-18T10:15:13;13.10;;;3.80;;
5052;SDS011;2545;50.892;5.740;2023-11-18T10:17:43;7.37;;;3.60;;
5052;SDS011;2545;50.892;5.740;2023-11-18T10:23:10;9.20;;;3.10;;
5052;SDS011;2545;50.892;5.740;2023-11-18T10:25:45;8.07;;;3.60;;
5052;SDS011;2545;50.892;5.740;2023-11-18T10:28:26;11.20;;;3.30;;
5052;SDS011;2545;50.892;5.740;2023-11-18T10:33:28;14.13;;;4.07;;
5052;SDS011;2545;50.892;5.740;2023-11-18T10:35:55;15.87;;;3.90;;
5052;SDS011;2545;50.892;5.740;2023-11-18T10:38:21;13.27;;;4.40;;
5052;SDS011;2545;50.892;5.740;2023-11-18T10:40:53;10.27;;;4.30;;
5052;SDS011;2545;50.892;5.740;2023-11-18T10:43:23;15.17;;;4.27;;
5052;SDS011;2545;50.892;5.740;2023-11-18T10:46:03;7.23;;;3.40;;
5052;SDS011;2545;50.892;5.740;2023-11-18T10:48:37;8.10;;;3.63;;
5052;SDS011;2545;50.892;5.740;2023-11-18T10:51:06;11.13;;;4.03;;
5052;SDS011;2545;50.892;5.740;2023-11-18T10:53:32;7.30;;;3.77;;
5052;SDS011;2545;50.892;5.740;2023-11-18T10:55:58;14.10;;;4.33;;
5052;SDS011;2545;50.892;5.740;2023-11-18T10:58:23;10.37;;;3.97;;
5052;SDS011;2545;50.892;5.740;2023-11-18T11:00:50;8.60;;;5.10;;
5052;SDS011;2545;50.892;5.740;2023-11-18T11:03:18;8.43;;;3.50;;
5052;SDS011;2545;50.892;5.740;2023-11-18T11:05:44;7.63;;;3.67;;
5052;SDS011;2545;50.892;5.740;2023-11-18T11:08:16;12.40;;;4.20;;
5052;SDS011;2545;50.892;5.740;2023-11-18T11:10:45;8.23;;;3.70;;
5052;SDS011;2545;50.892;5.740;2023-11-18T11:13:13;8.00;;;3.90;;
5052;SDS011;2545;50.892;5.740;2023-11-18T11:15:43;6.87;;;2.93;;
5052;SDS011;2545;50.892;5.740;2023-11-18T11:18:21;4.03;;;2.73;;
5052;SDS011;2545;50.892;5.740;2023-11-18T11:23:35;10.73;;;3.03;;
5052;SDS011;2545;50.892;5.740;2023-11-18T11:29:17;2.67;;;2.03;;
5052;SDS011;2545;50.892;5.740;2023-11-18T11:31:44;9.90;;;3.03;;
5052;SDS011;2545;50.892;5.740;2023-11-18T11:34:40;9.40;;;2.80;;
5052;SDS011;2545;50.892;5.740;2023-11-18T11:37:10;3.93;;;2.10;;
5052;SDS011;2545;50.892;5.740;2023-11-18T11:39:36;10.80;;;2.50;;
5052;SDS011;2545;50.892;5.740;2023-11-18T11:42:03;3.03;;;2.40;;
5052;SDS011;2545;50.892;5.740;2023-11-18T11:44:34;5.00;;;2.57;;
5052;SDS011;2545;50.892;5.740;2023-11-18T11:47:07;7.10;;;3.10;;
5052;SDS011;2545;50.892;5.740;2023-11-18T11:49:41;5.57;;;1.80;;
5052;SDS011;2545;50.892;5.740;2023-11-18T11:52:18;7.40;;;3.90;;
5052;SDS011;2545;50.892;5.740;2023-11-18T11:55:06;3.67;;;2.13;;
5052;SDS011;2545;50.892;5.740;2023-11-18T11:57:38;4.77;;;2.00;;
5052;SDS011;2545;50.892;5.740;2023-11-18T12:00:10;4.73;;;2.30;;
5052;SDS011;2545;50.892;5.740;2023-11-18T12:02:48;6.10;;;2.63;;
5052;SDS011;2545;50.892;5.740;2023-11-18T12:05:17;6.13;;;2.50;;
5052;SDS011;2545;50.892;5.740;2023-11-18T12:07:50;3.40;;;2.20;;
5052;SDS011;2545;50.892;5.740;2023-11-18T12:10:19;7.80;;;2.53;;
5052;SDS011;2545;50.892;5.740;2023-11-18T12:12:47;3.37;;;2.03;;
5052;SDS011;2545;50.892;5.740;2023-11-18T12:15:13;1.90;;;1.70;;
5052;SDS011;2545;50.892;5.740;2023-11-18T12:20:38;5.37;;;2.17;;
5052;SDS011;2545;50.892;5.740;2023-11-18T12:23:13;6.33;;;2.20;;
5052;SDS011;2545;50.892;5.740;2023-11-18T12:25:42;7.20;;;3.03;;
5052;SDS011;2545;50.892;5.740;2023-11-18T12:28:10;6.73;;;3.13;;
5052;SDS011;2545;50.892;5.740;2023-11-18T12:30:40;12.80;;;2.73;;
5052;SDS011;2545;50.892;5.740;2023-11-18T12:33:16;2.60;;;2.33;;
5052;SDS011;2545;50.892;5.740;2023-11-18T12:41:27;2.87;;;2.10;;
5052;SDS011;2545;50.892;5.740;2023-11-18T12:49:22;3.87;;;1.73;;
5052;SDS011;2545;50.892;5.740;2023-11-18T12:51:49;5.50;;;2.13;;
5052;SDS011;2545;50.892;5.740;2023-11-18T12:54:15;3.53;;;1.80;;
5052;SDS011;2545;50.892;5.740;2023-11-18T12:56:43;11.00;;;2.33;;
5052;SDS011;2545;50.892;5.740;2023-11-18T12:59:11;2.53;;;1.87;;
5052;SDS011;2545;50.892;5.740;2023-11-18T13:01:38;4.77;;;1.70;;
5052;SDS011;2545;50.892;5.740;2023-11-18T13:04:03;3.73;;;1.70;;
5052;SDS011;2545;50.892;5.740;2023-11-18T13:06:29;1.67;;;1.57;;
5052;SDS011;2545;50.892;5.740;2023-11-18T13:08:54;6.53;;;1.70;;
5052;SDS011;2545;50.892;5.740;2023-11-18T13:11:21;3.33;;;2.10;;
5052;SDS011;2545;50.892;5.740;2023-11-18T13:13:49;2.07;;;1.87;;
5052;SDS011;2545;50.892;5.740;2023-11-18T13:16:16;3.90;;;2.10;;
5052;SDS011;2545;50.892;5.740;2023-11-18T13:18:45;2.17;;;1.97;;
5052;SDS011;2545;50.892;5.740;2023-11-18T13:21:15;4.27;;;1.63;;
5052;SDS011;2545;50.892;5.740;2023-11-18T13:23:44;1.83;;;1.73;;
5052;SDS011;2545;50.892;5.740;2023-11-18T13:26:12;4.27;;;2.30;;
5052;SDS011;2545;50.892;5.740;2023-11-18T13:28:37;1.87;;;1.50;;
5052;SDS011;2545;50.892;5.740;2023-11-18T13:31:04;2.20;;;1.83;;
5052;SDS011;2545;50.892;5.740;2023-11-18T13:33:38;1.70;;;1.60;;
5052;SDS011;2545;50.892;5.740;2023-11-18T13:36:04;1.57;;;1.47;;
5052;SDS011;2545;50.892;5.740;2023-11-18T13:38:31;4.20;;;1.60;;
5052;SDS011;2545;50.892;5.740;2023-11-18T13:40:57;4.20;;;2.33;;
5052;SDS011;2545;50.892;5.740;2023-11-18T13:43:23;1.70;;;1.50;;
5052;SDS011;2545;50.892;5.740;2023-11-18T13:45:51;8.23;;;1.63;;
5052;SDS011;2545;50.892;5.740;2023-11-18T13:48:18;1.50;;;1.37;;
5052;SDS011;2545;50.892;5.740;2023-11-18T13:50:43;2.77;;;1.43;;
5052;SDS011;2545;50.892;5.740;2023-11-18T13:53:09;1.90;;;1.47;;
5052;SDS011;2545;50.892;5.740;2023-11-18T13:55:35;1.70;;;1.60;;
5052;SDS011;2545;50.892;5.740;2023-11-18T13:58:04;1.60;;;1.50;;
5052;SDS011;2545;50.892;5.740;2023-11-18T14:00:30;2.43;;;1.60;;
5052;SDS011;2545;50.892;5.740;2023-11-18T14:02:57;1.27;;;1.17;;
5052;SDS011;2545;50.892;5.740;2023-11-18T14:05:23;1.83;;;1.63;;
5052;SDS011;2545;50.892;5.740;2023-11-18T14:07:52;4.70;;;3.10;;
5052;SDS011;2545;50.892;5.740;2023-11-18T14:10:24;2.30;;;1.70;;
5052;SDS011;2545;50.892;5.740;2023-11-18T14:12:59;1.63;;;1.43;;
5052;SDS011;2545;50.892;5.740;2023-11-18T14:15:34;6.00;;;1.70;;
5052;SDS011;2545;50.892;5.740;2023-11-18T14:18:03;3.33;;;1.43;;
5052;SDS011;2545;50.892;5.740;2023-11-18T14:20:29;2.40;;;1.33;;
5052;SDS011;2545;50.892;5.740;2023-11-18T14:22:56;5.67;;;1.60;;
5052;SDS011;2545;50.892;5.740;2023-11-18T14:25:23;1.93;;;1.50;;
5052;SDS011;2545;50.892;5.740;2023-11-18T14:27:49;1.53;;;1.30;;
5052;SDS011;2545;50.892;5.740;2023-11-18T14:30:14;1.93;;;1.50;;
5052;SDS011;2545;50.892;5.740;2023-11-18T14:32:41;1.30;;;1.20;;
5052;SDS011;2545;50.892;5.740;2023-11-18T14:35:07;1.83;;;1.50;;
5052;SDS011;2545;50.892;5.740;2023-11-18T14:37:34;1.77;;;1.33;;
5052;SDS011;2545;50.892;5.740;2023-11-18T14:40:03;1.70;;;1.20;;
5052;SDS011;2545;50.892;5.740;2023-11-18T14:42:29;1.20;;;1.10;;
5052;SDS011;2545;50.892;5.740;2023-11-18T14:44:55;1.83;;;1.40;;
5052;SDS011;2545;50.892;5.740;2023-11-18T14:47:20;1.87;;;1.30;;
5052;SDS011;2545;50.892;5.740;2023-11-18T14:49:45;1.07;;;0.97;;
5052;SDS011;2545;50.892;5.740;2023-11-18T14:52:11;4.33;;;1.67;;
5052;SDS011;2545;50.892;5.740;2023-11-18T14:54:36;2.27;;;1.20;;
5052;SDS011;2545;50.892;5.740;2023-11-18T14:57:02;2.33;;;1.50;;
5052;SDS011;2545;50.892;5.740;2023-11-18T14:59:28;1.57;;;1.13;;
5052;SDS011;2545;50.892;5.740;2023-11-18T15:01:53;1.40;;;1.30;;
5052;SDS011;2545;50.892;5.740;2023-11-18T15:04:22;2.50;;;1.27;;
5052;SDS011;2545;50.892;5.740;2023-11-18T15:06:48;2.07;;;1.00;;
5052;SDS011;2545;50.892;5.740;2023-11-18T15:09:17;2.07;;;1.50;;
5052;SDS011;2545;50.892;5.740;2023-11-18T15:11:42;1.40;;;1.20;;
5052;SDS011;2545;50.892;5.740;2023-11-18T15:14:08;1.10;;;0.97;;
5052;SDS011;2545;50.892;5.740;2023-11-18T15:16:36;1.63;;;1.20;;
5052;SDS011;2545;50.892;5.740;2023-11-18T15:19:02;3.43;;;1.63;;
5052;SDS011;2545;50.892;5.740;2023-11-18T15:21:28;1.40;;;1.30;;
5052;SDS011;2545;50.892;5.740;2023-11-18T15:23:54;1.57;;;1.47;;
5052;SDS011;2545;50.892;5.740;2023-11-18T15:26:24;1.20;;;1.10;;
5052;SDS011;2545;50.892;5.740;2023-11-18T15:28:50;2.60;;;1.40;;
5052;SDS011;2545;50.892;5.740;2023-11-18T15:31:17;4.10;;;1.50;;
5052;SDS011;2545;50.892;5.740;2023-11-18T15:33:43;1.50;;;1.17;;
5052;SDS011;2545;50.892;5.740;2023-11-18T15:36:10;1.63;;;1.17;;
5052;SDS011;2545;50.892;5.740;2023-11-18T15:38:37;2.87;;;1.20;;